createdAt,value
2019-04-23T00:03:05.501Z,5.10
2019-04-23T00:05:51.452Z,5.07
2019-04-23T00:08:17.521Z,5.33
2019-04-23T00:10:42.553Z,5.13
2019-04-23T00:13:24.768Z,7.20
2019-04-23T00:16:02.997Z,5.23
2019-04-23T00:18:36.826Z,4.83
2019-04-23T00:21:38.146Z,4.87
2019-04-23T00:24:19.271Z,5.40
2019-04-23T00:26:42.949Z,5.10
2019-04-23T00:29:11.709Z,4.90
2019-04-23T00:31:44.281Z,6.23
2019-04-23T00:34:15.803Z,5.30
2019-04-23T00:36:51.605Z,5.10
2019-04-23T00:39:23.451Z,5.20
2019-04-23T00:41:54.639Z,5.37
2019-04-23T00:44:37.780Z,5.57
2019-04-23T00:46:57.485Z,5.40
2019-04-23T00:49:37.085Z,5.30
2019-04-23T00:52:09.453Z,5.60
2019-04-23T00:54:32.662Z,5.47
2019-04-23T00:57:07.487Z,5.73
2019-04-23T00:59:52.196Z,5.53
2019-04-23T01:02:14.193Z,5.83
2019-04-23T01:04:51.029Z,6.00
2019-04-23T01:07:22.458Z,5.60
2019-04-23T01:10:06.159Z,5.87
2019-04-23T01:12:36.142Z,5.80
2019-04-23T01:15:02.509Z,6.00
2019-04-23T01:17:39.448Z,6.00
2019-04-23T01:20:09.740Z,6.80
2019-04-23T01:22:23.244Z,6.57
2019-04-23T01:25:19.500Z,6.23
2019-04-23T01:28:11.039Z,6.67
2019-04-23T01:30:49.229Z,6.63
2019-04-23T01:33:29.604Z,5.90
2019-04-23T01:36:03.162Z,6.27
2019-04-23T01:38:31.459Z,7.07
2019-04-23T01:40:53.819Z,5.83
2019-04-23T01:43:30.239Z,6.10
2019-04-23T01:46:01.034Z,7.27
2019-04-23T01:48:39.181Z,6.50
2019-04-23T01:50:56.030Z,6.13
2019-04-23T01:56:13.983Z,6.30
2019-04-23T02:06:28.134Z,6.23
2019-04-23T02:08:56.790Z,6.53
2019-04-23T02:11:28.585Z,6.77
2019-04-23T02:13:55.333Z,6.20
2019-04-23T02:16:30.122Z,6.40
2019-04-23T02:19:03.647Z,6.80
2019-04-23T02:21:35.252Z,6.90
2019-04-23T02:24:09.051Z,9.53
2019-04-23T02:26:39.875Z,8.00
2019-04-23T02:29:15.945Z,7.00
2019-04-23T02:31:58.252Z,6.57
2019-04-23T02:34:35.831Z,6.70
2019-04-23T02:36:57.294Z,7.30
2019-04-23T02:39:31.184Z,6.93
2019-04-23T02:42:07.412Z,7.10
2019-04-23T02:44:24.245Z,6.70
2019-04-23T02:47:10.347Z,7.27
2019-04-23T02:54:46.677Z,6.83
2019-04-23T02:57:09.349Z,7.20
2019-04-23T03:04:52.228Z,7.83
2019-04-23T03:07:34.293Z,7.17
2019-04-23T03:12:31.850Z,7.63
2019-04-23T03:15:20.981Z,7.67
2019-04-23T03:18:11.929Z,7.70
2019-04-23T03:20:53.189Z,8.00
2019-04-23T03:23:25.262Z,7.80
2019-04-23T03:26:01.932Z,7.97
2019-04-23T03:28:49.410Z,7.60
2019-04-23T03:41:27.886Z,8.20
2019-04-23T03:43:42.416Z,8.40
2019-04-23T03:48:51.227Z,8.10
2019-04-23T03:51:26.411Z,8.03
2019-04-23T03:54:03.997Z,8.80
2019-04-23T03:59:27.139Z,8.20
2019-04-23T04:01:37.656Z,7.97
2019-04-23T04:06:48.103Z,8.57
2019-04-23T04:09:33.163Z,8.97
2019-04-23T04:11:42.171Z,8.70
2019-04-23T04:29:40.350Z,9.30
2019-04-23T04:32:00.569Z,9.33
2019-04-23T04:35:07.396Z,10.10
2019-04-23T04:37:35.560Z,9.37
2019-04-23T04:40:07.182Z,13.20
2019-04-23T04:47:36.645Z,9.03
2019-04-23T04:49:59.739Z,10.43
2019-04-23T04:52:46.969Z,9.37
2019-04-23T04:55:00.108Z,9.50
2019-04-23T04:57:40.254Z,9.37
2019-04-23T05:00:13.318Z,9.43
2019-04-23T05:02:53.887Z,9.73
2019-04-23T05:05:37.983Z,9.50
2019-04-23T05:07:48.207Z,10.07
2019-04-23T05:10:28.853Z,9.80
2019-04-23T05:12:52.195Z,10.10
2019-04-23T05:15:17.228Z,9.20
2019-04-23T05:25:47.882Z,9.43
2019-04-23T05:28:28.458Z,9.70
2019-04-23T05:30:52.114Z,10.17
2019-04-23T05:33:22.384Z,10.30
2019-04-23T05:36:15.563Z,10.20
2019-04-23T05:38:37.701Z,9.33
2019-04-23T05:41:03.741Z,10.10
2019-04-23T05:43:32.399Z,9.30
2019-04-23T05:46:09.631Z,9.70
2019-04-23T05:48:37.716Z,10.43
2019-04-23T05:51:14.260Z,9.90
2019-04-23T05:53:42.509Z,10.07
2019-04-23T05:56:15.549Z,9.80
2019-04-23T05:58:48.944Z,9.53
2019-04-23T06:06:37.523Z,9.87
2019-04-23T06:09:09.162Z,9.90
2019-04-23T06:11:47.027Z,10.33
2019-04-23T06:14:17.361Z,10.37
2019-04-23T06:16:54.833Z,9.67
2019-04-23T06:24:29.273Z,10.10
2019-04-23T06:36:58.794Z,10.50
2019-04-23T06:39:36.726Z,9.83
2019-04-23T06:42:03.876Z,10.03
2019-04-23T06:47:12.952Z,10.13
2019-04-23T06:49:49.473Z,9.57
2019-04-23T06:52:18.979Z,9.47
2019-04-23T06:54:56.210Z,9.67
2019-04-23T06:59:52.658Z,9.78
2019-04-23T07:02:30.874Z,9.83
2019-04-23T07:05:03.300Z,10.00
2019-04-23T07:07:46.580Z,9.67
2019-04-23T07:10:05.490Z,8.80
2019-04-23T07:12:36.486Z,8.97
2019-04-23T07:15:25.084Z,9.93
2019-04-23T07:17:34.804Z,9.90
2019-04-23T07:20:15.351Z,8.73
2019-04-23T07:22:46.828Z,9.33
2019-04-23T07:25:17.591Z,9.10
2019-04-23T07:27:53.118Z,8.83
2019-04-23T07:30:24.096Z,9.07
2019-04-23T07:32:57.251Z,8.67
2019-04-23T07:35:35.865Z,9.03
2019-04-23T07:38:20.668Z,8.80
2019-04-23T07:40:40.992Z,9.03
2019-04-23T07:43:23.400Z,9.10
2019-04-23T07:46:19.893Z,8.37
2019-04-23T07:48:43.737Z,8.43
2019-04-23T07:51:14.565Z,8.70
2019-04-23T07:53:53.508Z,7.83
2019-04-23T07:56:25.118Z,9.23
2019-04-23T07:58:58.316Z,8.37
2019-04-23T08:01:26.778Z,8.20
2019-04-23T08:04:18.239Z,8.50
2019-04-23T08:06:31.886Z,8.03
2019-04-23T08:09:06.278Z,8.80
2019-04-23T08:11:52.413Z,8.43
2019-04-23T08:14:02.121Z,9.27
2019-04-23T08:19:17.080Z,8.68
2019-04-23T08:21:40.210Z,8.20
2019-04-23T08:24:38.490Z,8.15
2019-04-23T08:27:18.129Z,8.38
2019-04-23T08:29:48.895Z,7.20
2019-04-23T08:32:19.462Z,7.83
2019-04-23T08:37:34.702Z,7.07
2019-04-23T08:40:04.731Z,7.33
2019-04-23T08:50:44.109Z,7.10
2019-04-23T08:55:53.670Z,7.00
2019-04-23T08:58:36.855Z,7.00
2019-04-23T09:01:00.601Z,7.70
2019-04-23T09:03:33.297Z,6.83
2019-04-23T09:06:06.148Z,6.95
2019-04-23T09:11:19.937Z,7.05
2019-04-23T09:16:09.031Z,7.20
2019-04-23T09:18:45.965Z,8.20
2019-04-23T09:21:14.066Z,7.12
2019-04-23T09:26:24.361Z,7.70
2019-04-23T09:29:17.302Z,7.47
2019-04-23T09:34:31.656Z,6.90
2019-04-23T09:37:06.342Z,6.20
2019-04-23T09:39:43.035Z,7.67
2019-04-23T09:42:38.405Z,6.40
2019-04-23T09:45:26.897Z,6.97
2019-04-23T09:48:11.068Z,6.53
2019-04-23T09:50:38.474Z,6.50
2019-04-23T09:55:41.641Z,6.30
2019-04-23T09:58:15.420Z,6.40
2019-04-23T10:00:51.514Z,6.13
2019-04-23T10:03:21.077Z,6.73
2019-04-23T10:05:49.060Z,6.47
2019-04-23T10:08:19.323Z,6.47
2019-04-23T10:10:47.078Z,6.60
2019-04-23T10:13:19.900Z,6.83
2019-04-23T10:15:52.103Z,6.70
2019-04-23T10:18:24.463Z,6.00
2019-04-23T10:20:54.417Z,6.17
2019-04-23T10:23:25.225Z,6.10
2019-04-23T10:25:56.363Z,6.13
2019-04-23T10:28:45.015Z,6.20
2019-04-23T10:31:14.640Z,5.70
2019-04-23T10:33:46.285Z,5.63
2019-04-23T10:36:19.907Z,6.23
2019-04-23T10:38:55.943Z,5.97
2019-04-23T10:41:22.531Z,5.83
2019-04-23T10:43:58.692Z,5.50
2019-04-23T10:47:32.090Z,5.97
2019-04-23T10:52:33.732Z,6.00
2019-04-23T10:55:06.640Z,5.97
2019-04-23T10:57:31.193Z,5.70
2019-04-23T11:00:12.595Z,5.37
2019-04-23T11:03:12.061Z,5.00
2019-04-23T11:05:37.739Z,5.40
2019-04-23T11:07:50.456Z,5.30
2019-04-23T11:10:23.542Z,5.87
2019-04-23T11:12:50.729Z,5.20
2019-04-23T11:18:08.840Z,5.27
2019-04-23T11:20:45.308Z,5.80
2019-04-23T11:23:01.561Z,5.70
2019-04-23T11:28:13.316Z,5.27
2019-04-23T11:31:09.379Z,5.50
2019-04-23T11:33:19.920Z,5.40
2019-04-23T11:36:19.900Z,5.50
2019-04-23T11:41:00.140Z,5.37
2019-04-23T11:46:19.437Z,5.83
2019-04-23T11:48:51.951Z,5.90
2019-04-23T11:56:32.525Z,5.50
2019-04-23T11:58:44.635Z,5.83
2019-04-23T12:04:48.056Z,5.20
2019-04-23T12:07:26.386Z,5.10
2019-04-23T12:10:07.646Z,5.80
2019-04-23T12:15:03.514Z,5.73
2019-04-23T12:17:45.997Z,5.67
2019-04-23T12:20:14.860Z,5.23
2019-04-23T12:22:51.782Z,5.53
2019-04-23T12:25:32.852Z,5.30
2019-04-23T12:27:59.751Z,5.37
2019-04-23T12:30:25.233Z,5.53
2019-04-23T12:35:24.018Z,5.70
2019-04-23T12:40:44.217Z,5.30
2019-04-23T12:43:17.338Z,8.23
2019-04-23T12:45:42.489Z,5.80
2019-04-23T12:55:57.389Z,5.73
2019-04-23T12:58:26.932Z,5.30
2019-04-23T13:01:00.504Z,5.53
2019-04-23T13:05:59.257Z,4.80
2019-04-23T13:11:13.974Z,5.33
2019-04-23T13:13:50.300Z,5.07
2019-04-23T13:16:16.368Z,5.10
2019-04-23T13:18:52.472Z,4.77
2019-04-23T13:21:46.734Z,4.30
2019-04-23T13:24:20.548Z,4.60
2019-04-23T13:26:44.550Z,4.93
2019-04-23T13:29:34.527Z,4.47
2019-04-23T13:31:56.789Z,4.40
2019-04-23T13:34:42.860Z,4.80
2019-04-23T13:37:00.708Z,4.37
2019-04-23T13:39:41.805Z,4.37
2019-04-23T13:42:15.960Z,4.63
2019-04-23T13:44:43.891Z,5.07
2019-04-23T13:47:25.738Z,4.87
2019-04-23T13:49:55.246Z,4.40
2019-04-23T13:52:43.268Z,4.90
2019-04-23T13:55:04.371Z,4.70
2019-04-23T13:59:57.834Z,4.87
2019-04-23T14:02:34.487Z,4.87
2019-04-23T14:05:26.767Z,4.50
2019-04-23T14:07:56.519Z,5.07
2019-04-23T14:10:29.471Z,4.57
2019-04-23T14:15:42.814Z,4.37
2019-04-23T14:18:22.766Z,4.73
2019-04-23T14:20:31.600Z,4.77
2019-04-23T14:25:50.552Z,5.00
2019-04-23T14:30:59.151Z,5.50
2019-04-23T14:33:17.723Z,4.73
2019-04-23T14:35:45.901Z,6.23
2019-04-23T14:43:22.517Z,5.77
2019-04-23T14:46:38.513Z,5.33
2019-04-23T14:48:51.787Z,4.60
2019-04-23T14:51:32.148Z,5.37
2019-04-23T14:53:48.482Z,5.60
2019-04-23T14:59:04.394Z,5.77
2019-04-23T15:03:57.644Z,6.00
2019-04-23T15:06:39.871Z,6.20
2019-04-23T15:09:19.759Z,6.50
2019-04-23T15:11:48.590Z,5.47
2019-04-23T15:14:11.988Z,6.73
2019-04-23T15:16:43.102Z,5.20
2019-04-23T15:22:04.652Z,5.73
2019-04-23T15:24:26.005Z,5.40
2019-04-23T15:29:20.135Z,6.30
2019-04-23T15:32:13.810Z,6.37
2019-04-23T15:34:48.896Z,6.17
2019-04-23T15:37:20.379Z,6.27
2019-04-23T15:39:50.508Z,6.67
2019-04-23T15:42:16.722Z,6.30
2019-04-23T15:44:48.802Z,6.33
2019-04-23T15:47:33.034Z,6.13
2019-04-23T15:49:57.424Z,8.30
2019-04-23T15:52:18.928Z,6.73
2019-04-23T15:54:57.002Z,6.40
2019-04-23T15:57:40.181Z,6.70
2019-04-23T15:59:55.995Z,6.57
2019-04-23T16:01:59.911Z,6.70
2019-04-23T16:04:29.794Z,6.63
2019-04-23T16:07:02.350Z,6.20
2019-04-23T16:10:14.448Z,6.57
2019-04-23T16:12:31.810Z,6.83
2019-04-23T16:17:37.075Z,7.37
2019-04-23T16:20:27.292Z,7.10
2019-04-23T16:22:44.421Z,6.60
2019-04-23T16:25:17.472Z,6.47
2019-04-23T16:27:59.089Z,7.27
2019-04-23T16:36:19.918Z,6.83
2019-04-23T16:41:07.689Z,6.80
2019-04-23T16:46:11.823Z,6.77
2019-04-23T16:48:53.244Z,6.83
2019-04-23T16:51:29.676Z,8.67
2019-04-23T16:53:46.329Z,8.17
2019-04-23T16:58:54.818Z,7.33
2019-04-23T17:01:35.363Z,7.00
2019-04-23T17:03:56.430Z,7.00
2019-04-23T17:06:29.328Z,6.93
2019-04-23T17:11:49.066Z,7.00
2019-04-23T17:14:09.870Z,7.30
2019-04-23T17:16:36.033Z,7.17
2019-04-23T17:19:13.300Z,7.37
2019-04-23T17:21:38.485Z,6.93
2019-04-23T17:24:21.175Z,8.50
2019-04-23T17:26:46.118Z,8.33
2019-04-23T17:31:45.356Z,7.37
2019-04-23T17:34:30.484Z,7.37
2019-04-23T17:37:13.616Z,7.73
2019-04-23T17:40:18.161Z,6.93
2019-04-23T17:48:34.965Z,7.60
2019-04-23T17:51:10.992Z,7.97
2019-04-23T17:53:56.175Z,7.43
2019-04-23T17:58:52.531Z,7.63
2019-04-23T18:01:20.175Z,7.63
2019-04-23T18:03:55.605Z,6.90
2019-04-23T18:09:00.339Z,7.73
2019-04-23T18:14:02.688Z,7.00
2019-04-23T18:16:40.757Z,8.87
2019-04-23T18:19:07.735Z,7.07
2019-04-23T18:22:01.830Z,7.43
2019-04-23T18:24:56.081Z,7.50
2019-04-23T18:27:19.153Z,8.00
2019-04-23T18:30:11.750Z,8.45
2019-04-23T18:33:43.876Z,7.77
2019-04-23T18:38:18.543Z,7.37
2019-04-23T18:40:58.900Z,7.43
2019-04-23T18:45:54.024Z,8.67
2019-04-23T18:51:05.211Z,8.27
2019-04-23T18:56:06.532Z,8.43
2019-04-23T18:58:52.183Z,8.30
2019-04-23T19:04:05.754Z,8.40
2019-04-23T19:06:41.133Z,8.03
2019-04-23T19:10:11.068Z,7.93
2019-04-23T19:12:44.398Z,7.90
2019-04-23T19:15:13.903Z,8.20
2019-04-23T19:20:35.330Z,8.17
2019-04-23T19:22:53.045Z,7.90
2019-04-23T19:25:23.299Z,8.57
2019-04-23T19:30:37.052Z,8.13
2019-04-23T19:33:25.390Z,8.23
2019-04-23T19:40:56.794Z,8.37
2019-04-23T19:43:25.157Z,8.40
2019-04-23T19:46:03.548Z,8.97
2019-04-23T19:48:33.488Z,10.27
2019-04-23T19:51:02.713Z,9.10
2019-04-23T19:53:44.980Z,9.40
2019-04-23T20:01:21.067Z,8.70
2019-04-23T20:06:19.332Z,9.63
2019-04-23T20:11:21.802Z,10.10
2019-04-23T20:16:30.182Z,9.18
2019-04-23T20:19:10.077Z,9.30
2019-04-23T20:21:30.567Z,9.40
2019-04-23T20:26:23.516Z,9.20
2019-04-23T20:37:12.906Z,9.23
2019-04-23T20:39:50.650Z,9.37
2019-04-23T20:45:06.080Z,9.63
2019-04-23T20:47:30.745Z,9.27
2019-04-23T20:50:03.418Z,9.43
2019-04-23T20:52:22.168Z,9.90
2019-04-23T20:55:02.077Z,10.60
2019-04-23T20:57:55.324Z,10.17
2019-04-23T21:00:43.247Z,9.90
2019-04-23T21:05:36.728Z,9.07
2019-04-23T21:13:29.434Z,10.10
2019-04-23T21:15:52.631Z,9.87
2019-04-23T21:18:22.045Z,10.10
2019-04-23T21:20:50.100Z,10.70
2019-04-23T21:23:17.691Z,10.67
2019-04-23T21:25:52.565Z,10.27
2019-04-23T21:28:40.197Z,10.97
2019-04-23T21:31:22.832Z,10.10
2019-04-23T21:34:05.799Z,10.60
2019-04-23T21:36:51.077Z,11.00
2019-04-23T21:39:53.522Z,10.80
2019-04-23T21:42:24.140Z,12.40
2019-04-23T21:45:28.531Z,10.77
2019-04-23T21:48:06.532Z,10.43
2019-04-23T21:50:45.586Z,10.80
2019-04-23T21:53:04.497Z,12.07
2019-04-23T21:55:38.963Z,13.03
2019-04-23T21:58:07.550Z,10.20
2019-04-23T22:00:46.218Z,11.20
2019-04-23T22:03:11.758Z,11.50
2019-04-23T22:05:42.453Z,10.70
2019-04-23T22:10:45.616Z,10.80
2019-04-23T22:15:54.687Z,11.57
2019-04-23T22:18:12.916Z,10.53
2019-04-23T22:20:49.299Z,11.30
2019-04-23T22:23:18.330Z,12.70
2019-04-23T22:25:56.892Z,10.37
2019-04-23T22:28:18.050Z,10.80
2019-04-23T22:30:54.949Z,11.73
2019-04-23T22:33:26.784Z,11.43
2019-04-23T22:38:30.199Z,10.87
2019-04-23T22:44:02.448Z,10.93
2019-04-23T22:46:16.327Z,10.53
2019-04-23T22:48:51.298Z,10.73
2019-04-23T22:51:31.572Z,11.20
2019-04-23T22:53:52.303Z,11.30
2019-04-23T22:56:24.910Z,10.73
2019-04-23T22:58:56.359Z,11.10
2019-04-23T23:01:25.985Z,10.67
2019-04-23T23:04:04.977Z,10.50
2019-04-23T23:09:22.857Z,11.13
2019-04-23T23:11:49.073Z,10.70
2019-04-23T23:16:54.827Z,10.87
2019-04-23T23:21:58.241Z,11.37
2019-04-23T23:29:20.286Z,11.33
2019-04-23T23:32:17.241Z,11.17
2019-04-23T23:34:41.953Z,10.70
2019-04-23T23:39:49.574Z,10.70
2019-04-23T23:42:11.199Z,10.83
2019-04-23T23:44:58.300Z,10.60
2019-04-23T23:47:38.154Z,11.13
2019-04-23T23:49:54.522Z,10.93
2019-04-23T23:52:27.009Z,10.37
2019-04-23T23:54:52.931Z,10.20
2019-04-23T23:57:23.541Z,9.57
